createdAt,value
2022-09-28T00:00:45.207Z,8.97
2022-09-28T00:03:14.944Z,8.88
2022-09-28T00:05:45.493Z,8.99
2022-09-28T00:08:12.460Z,8.91
2022-09-28T00:10:39.265Z,8.86
2022-09-28T00:13:06.298Z,8.78
2022-09-28T00:15:33.200Z,8.51
2022-09-28T00:18:01.524Z,8.63
2022-09-28T00:20:28.388Z,9.17
2022-09-28T00:22:55.451Z,8.21
2022-09-28T00:25:23.421Z,9.13
2022-09-28T00:27:50.945Z,9.44
2022-09-28T00:30:17.860Z,8.93
2022-09-28T00:32:44.692Z,9.40
2022-09-28T00:35:16.829Z,9.35
2022-09-28T00:37:46.540Z,9.38
2022-09-28T00:40:13.377Z,8.29
2022-09-28T00:42:40.248Z,8.13
2022-09-28T00:45:12.878Z,8.67
2022-09-28T00:47:55.680Z,8.79
2022-09-28T00:50:29.150Z,8.99
2022-09-28T00:53:03.211Z,8.98
2022-09-28T00:55:35.681Z,7.89
2022-09-28T00:58:05.492Z,8.50
2022-09-28T01:00:32.609Z,7.97
2022-09-28T01:02:59.619Z,8.89
2022-09-28T01:05:30.864Z,8.61
2022-09-28T01:07:59.306Z,8.91
2022-09-28T01:10:33.460Z,7.92
2022-09-28T01:13:06.376Z,7.86
2022-09-28T01:15:45.842Z,8.91
2022-09-28T01:18:19.808Z,8.63
2022-09-28T01:20:56.162Z,9.03
2022-09-28T01:23:48.611Z,7.77
2022-09-28T01:26:47.379Z,8.31
2022-09-28T01:29:22.503Z,8.56
2022-09-28T01:32:02.020Z,8.09
2022-09-28T01:34:37.450Z,7.90
2022-09-28T01:37:12.224Z,7.69
2022-09-28T01:39:47.870Z,8.96
2022-09-28T01:42:21.866Z,8.95
2022-09-28T01:44:51.835Z,7.54
2022-09-28T01:47:24.026Z,8.25
2022-09-28T01:50:01.942Z,8.96
2022-09-28T01:52:35.195Z,8.68
2022-09-28T01:55:10.475Z,8.69
2022-09-28T01:57:43.315Z,8.25
2022-09-28T02:00:24.340Z,8.94
2022-09-28T02:02:59.453Z,7.98
2022-09-28T02:05:32.996Z,8.66
2022-09-28T02:08:08.765Z,8.33
2022-09-28T02:10:42.219Z,8.89
2022-09-28T02:13:14.297Z,7.40
2022-09-28T02:15:51.001Z,7.60
2022-09-28T02:18:17.905Z,8.43
2022-09-28T02:20:50.525Z,8.89
2022-09-28T02:23:18.914Z,8.38
2022-09-28T02:25:54.838Z,7.61
2022-09-28T02:28:24.745Z,8.66
2022-09-28T02:30:51.767Z,8.21
2022-09-28T02:33:25.832Z,8.87
2022-09-28T02:36:02.041Z,8.28
2022-09-28T02:38:28.797Z,8.54
2022-09-28T02:41:04.124Z,8.55
2022-09-28T02:43:44.945Z,7.85
2022-09-28T02:46:24.789Z,8.50
2022-09-28T02:49:20.739Z,7.85
2022-09-28T02:52:08.691Z,8.95
2022-09-28T02:55:03.635Z,7.69
2022-09-28T02:58:10.954Z,8.44
2022-09-28T03:00:50.413Z,8.92
2022-09-28T03:03:29.338Z,8.93
2022-09-28T03:06:02.289Z,8.63
2022-09-28T03:08:35.886Z,7.63
2022-09-28T03:11:08.446Z,8.32
2022-09-28T03:13:36.563Z,8.86
2022-09-28T03:16:11.101Z,7.88
2022-09-28T03:18:38.420Z,8.26
2022-09-28T03:21:10.892Z,8.53
2022-09-28T03:23:44.009Z,7.91
2022-09-28T03:26:11.862Z,8.31
2022-09-28T03:28:41.121Z,8.91
2022-09-28T03:31:09.565Z,8.92
2022-09-28T03:33:39.594Z,8.34
2022-09-28T03:36:08.580Z,8.93
2022-09-28T03:38:37.827Z,8.18
2022-09-28T03:41:04.838Z,8.21
2022-09-28T03:43:34.350Z,8.49
2022-09-28T03:46:02.615Z,8.34
2022-09-28T03:48:33.161Z,8.05
2022-09-28T03:51:03.978Z,7.69
2022-09-28T03:53:31.181Z,8.11
2022-09-28T03:56:11.925Z,8.48
2022-09-28T03:58:44.988Z,8.00
2022-09-28T04:01:17.229Z,9.10
2022-09-28T04:03:46.802Z,8.29
2022-09-28T04:06:26.000Z,8.69
2022-09-28T04:08:57.417Z,8.87
2022-09-28T04:11:27.051Z,9.04
2022-09-28T04:13:56.315Z,7.85
2022-09-28T04:16:25.105Z,9.11
2022-09-28T04:18:53.837Z,7.78
2022-09-28T04:21:29.470Z,8.77
2022-09-28T04:24:03.575Z,7.78
2022-09-28T04:26:36.229Z,7.71
2022-09-28T04:29:10.765Z,8.85
2022-09-28T04:31:51.512Z,8.71
2022-09-28T04:34:31.850Z,8.87
2022-09-28T04:37:10.674Z,8.94
2022-09-28T04:39:51.060Z,7.95
2022-09-28T04:42:27.752Z,7.93
2022-09-28T04:44:57.731Z,7.99
2022-09-28T04:47:33.633Z,9.25
2022-09-28T04:50:17.471Z,8.98
2022-09-28T04:52:53.945Z,8.32
2022-09-28T04:55:28.292Z,8.88
2022-09-28T04:57:56.948Z,8.74
2022-09-28T05:00:57.740Z,7.98
2022-09-28T05:07:01.070Z,9.28
2022-09-28T05:13:30.806Z,7.94
2022-09-28T05:16:42.643Z,9.28
2022-09-28T05:22:36.864Z,7.92
2022-09-28T05:26:33.502Z,9.19
2022-09-28T05:28:42.578Z,7.98
2022-09-28T05:31:24.728Z,7.88
2022-09-28T05:34:15.968Z,9.15
2022-09-28T05:37:15.186Z,8.35
2022-09-28T05:39:55.123Z,7.75
2022-09-28T05:43:02.888Z,7.46
2022-09-28T05:45:39.700Z,8.72
2022-09-28T05:48:17.371Z,8.74
2022-09-28T05:53:45.878Z,8.11
2022-09-28T05:56:24.752Z,7.67
2022-09-28T05:59:02.304Z,7.71
2022-09-28T06:01:32.527Z,8.25
2022-09-28T06:04:04.628Z,8.87
2022-09-28T06:06:31.728Z,7.66
2022-09-28T06:09:05.480Z,7.54
2022-09-28T06:11:33.145Z,8.86
2022-09-28T06:14:11.293Z,7.54
2022-09-28T06:16:50.408Z,7.67
2022-09-28T06:19:18.870Z,8.56
2022-09-28T06:21:52.561Z,8.22
2022-09-28T06:24:42.876Z,8.85
2022-09-28T06:27:12.748Z,7.83
2022-09-28T06:29:43.041Z,8.10
2022-09-28T06:32:21.892Z,8.81
2022-09-28T06:34:56.717Z,7.66
2022-09-28T06:37:29.987Z,8.01
2022-09-28T06:39:56.758Z,8.07
2022-09-28T06:42:33.668Z,7.63
2022-09-28T06:45:10.228Z,8.00
2022-09-28T06:47:39.630Z,8.28
2022-09-28T06:50:29.270Z,8.17
2022-09-28T06:53:05.269Z,7.82
2022-09-28T06:55:43.301Z,7.94
2022-09-28T06:58:17.852Z,7.51
2022-09-28T07:01:02.045Z,8.60
2022-09-28T07:09:24.339Z,8.92
2022-09-28T07:11:55.725Z,7.66
2022-09-28T07:14:47.369Z,8.72
2022-09-28T07:17:23.493Z,8.27
2022-09-28T07:19:54.966Z,9.04
2022-09-28T07:22:38.238Z,9.01
2022-09-28T07:25:20.116Z,8.39
2022-09-28T07:27:48.950Z,9.12
2022-09-28T07:33:19.495Z,9.18
2022-09-28T07:35:56.333Z,8.38
2022-09-28T07:38:43.835Z,7.94
2022-09-28T07:41:20.300Z,7.96
2022-09-28T07:44:04.169Z,8.04
2022-09-28T07:46:50.110Z,8.43
2022-09-28T07:49:19.004Z,8.91
2022-09-28T07:51:54.259Z,8.18
2022-09-28T07:54:23.528Z,9.52
2022-09-28T07:57:06.028Z,8.17
2022-09-28T08:02:36.215Z,9.55
2022-09-28T08:05:19.533Z,9.32
2022-09-28T08:07:55.253Z,9.32
2022-09-28T08:10:42.407Z,8.66
2022-09-28T08:13:23.515Z,9.49
2022-09-28T08:16:03.676Z,9.52
2022-09-28T08:18:33.044Z,9.56
2022-09-28T08:21:15.188Z,8.86
2022-09-28T08:23:47.796Z,10.19
2022-09-28T08:26:20.123Z,10.08
2022-09-28T08:28:51.591Z,10.02
2022-09-28T08:31:22.724Z,10.33
2022-09-28T08:33:49.736Z,10.15
2022-09-28T08:36:27.793Z,10.01
2022-09-28T08:42:09.001Z,10.35
2022-09-28T08:45:02.086Z,9.60
2022-09-28T08:47:48.560Z,10.82
2022-09-28T08:50:35.848Z,10.24
2022-09-28T08:53:18.361Z,9.86
2022-09-28T08:55:51.382Z,11.06
2022-09-28T08:58:38.554Z,10.83
2022-09-28T09:01:19.398Z,10.12
2022-09-28T09:04:04.124Z,11.12
2022-09-28T09:06:46.629Z,10.07
2022-09-28T09:09:33.704Z,10.94
2022-09-28T09:12:17.389Z,10.27
2022-09-28T09:15:22.119Z,10.82
2022-09-28T09:18:19.758Z,10.33
2022-09-28T09:21:17.048Z,10.42
2022-09-28T09:24:00.584Z,11.30
2022-09-28T09:26:39.310Z,10.64
2022-09-28T09:29:30.451Z,11.87
2022-09-28T09:32:19.870Z,10.63
2022-09-28T09:35:29.260Z,11.70
2022-09-28T09:38:13.154Z,10.91
2022-09-28T09:40:55.894Z,11.46
2022-09-28T09:43:50.600Z,11.46
2022-09-28T09:46:27.060Z,12.14
2022-09-28T09:49:08.163Z,10.95
2022-09-28T09:51:45.966Z,11.16
2022-09-28T09:54:29.744Z,11.14
2022-09-28T09:57:06.406Z,11.75
2022-09-28T09:59:39.928Z,12.59
2022-09-28T10:02:22.515Z,12.21
2022-09-28T10:04:52.399Z,12.39
2022-09-28T10:07:30.760Z,11.94
2022-09-28T10:10:11.579Z,12.28
2022-09-28T10:12:44.020Z,13.72
2022-09-28T10:15:19.746Z,13.86
2022-09-28T10:17:48.429Z,14.58
2022-09-28T10:20:29.003Z,14.92
2022-09-28T10:23:03.315Z,15.18
2022-09-28T10:25:34.188Z,14.84
2022-09-28T10:31:36.603Z,13.95
2022-09-28T10:34:11.749Z,14.64
2022-09-28T10:36:52.327Z,15.35
2022-09-28T10:39:34.394Z,15.70
2022-09-28T10:42:28.922Z,15.77
2022-09-28T10:45:19.402Z,16.32
2022-09-28T10:47:53.990Z,16.83
2022-09-28T10:50:23.614Z,17.59
2022-09-28T10:52:50.307Z,17.88
2022-09-28T10:55:36.855Z,18.72
2022-09-28T10:58:27.538Z,18.36
2022-09-28T11:01:25.701Z,17.95
2022-09-28T11:04:06.615Z,17.71
2022-09-28T11:06:42.357Z,18.05
2022-09-28T11:09:29.765Z,16.99
2022-09-28T11:12:03.583Z,17.40
2022-09-28T11:14:42.948Z,17.26
2022-09-28T11:17:17.646Z,17.55
2022-09-28T11:19:54.689Z,16.20
2022-09-28T11:22:28.416Z,16.88
2022-09-28T11:25:16.438Z,16.45
2022-09-28T11:27:58.969Z,15.49
2022-09-28T11:30:32.717Z,16.37
2022-09-28T11:33:19.092Z,16.00
2022-09-28T11:36:02.373Z,15.91
2022-09-28T11:38:39.618Z,15.31
2022-09-28T11:41:25.639Z,14.98
2022-09-28T11:44:22.873Z,14.53
2022-09-28T11:47:02.268Z,14.47
2022-09-28T11:49:39.085Z,15.30
2022-09-28T11:52:16.707Z,15.02
2022-09-28T11:54:49.012Z,15.15
2022-09-28T11:57:22.463Z,15.70
2022-09-28T12:03:20.792Z,15.46
2022-09-28T12:06:00.177Z,14.52
2022-09-28T12:08:34.766Z,14.38
2022-09-28T12:11:05.643Z,14.86
2022-09-28T12:13:37.593Z,15.01
2022-09-28T12:19:02.910Z,15.32
2022-09-28T12:21:39.177Z,14.63
2022-09-28T12:24:20.301Z,15.17
2022-09-28T12:26:56.617Z,15.54
2022-09-28T12:29:37.884Z,15.37
2022-09-28T12:32:21.752Z,15.39
2022-09-28T12:34:58.920Z,14.87
2022-09-28T12:38:09.981Z,15.17
2022-09-28T12:40:42.286Z,15.59
2022-09-28T12:43:27.982Z,15.25
2022-09-28T12:46:17.325Z,14.77
2022-09-28T12:52:10.047Z,15.45
2022-09-28T12:58:03.502Z,16.42
2022-09-28T13:00:41.350Z,16.87
2022-09-28T13:03:38.334Z,16.83
2022-09-28T13:06:37.665Z,16.13
2022-09-28T13:09:34.562Z,16.09
2022-09-28T13:12:35.512Z,17.10
2022-09-28T13:15:29.711Z,16.28
2022-09-28T13:18:13.361Z,17.02
2022-09-28T13:20:59.479Z,17.87
2022-09-28T13:23:40.223Z,17.77
2022-09-28T13:26:24.560Z,17.71
2022-09-28T13:28:58.455Z,16.68
2022-09-28T13:31:31.800Z,16.70
2022-09-28T13:34:03.030Z,17.15
2022-09-28T13:36:42.495Z,16.38
2022-09-28T13:39:31.295Z,17.16
2022-09-28T13:42:02.655Z,16.91
2022-09-28T13:44:47.564Z,16.66
2022-09-28T13:47:34.464Z,16.62
2022-09-28T13:50:23.692Z,16.57
2022-09-28T13:53:07.762Z,16.15
2022-09-28T13:55:51.342Z,16.34
2022-09-28T13:58:34.933Z,16.17
2022-09-28T14:01:09.541Z,14.96
2022-09-28T14:03:58.865Z,14.83
2022-09-28T14:06:30.708Z,15.41
2022-09-28T14:09:38.685Z,15.41
2022-09-28T14:12:45.467Z,15.50
2022-09-28T14:15:59.572Z,14.05
2022-09-28T14:22:06.595Z,13.92
2022-09-28T14:25:22.743Z,13.44
2022-09-28T14:28:37.906Z,14.27
2022-09-28T14:31:29.118Z,14.38
2022-09-28T14:34:31.643Z,14.07
2022-09-28T14:37:20.201Z,14.19
2022-09-28T14:40:04.181Z,14.10
2022-09-28T14:42:41.663Z,13.49
2022-09-28T14:45:43.601Z,14.01
2022-09-28T14:48:45.111Z,13.84
2022-09-28T14:52:02.251Z,13.84
2022-09-28T14:54:39.936Z,13.53
2022-09-28T14:57:20.972Z,14.41
2022-09-28T15:00:17.669Z,14.36
2022-09-28T15:02:56.244Z,14.91
2022-09-28T15:06:11.666Z,15.20
2022-09-28T15:09:01.474Z,16.33
2022-09-28T15:14:44.971Z,17.75
2022-09-28T15:17:24.321Z,18.36
2022-09-28T15:20:31.354Z,19.75
2022-09-28T15:23:02.008Z,20.14
2022-09-28T15:26:03.578Z,20.24
2022-09-28T15:28:57.748Z,21.60
2022-09-28T15:31:41.233Z,21.37
2022-09-28T15:37:39.631Z,18.91
2022-09-28T15:40:32.509Z,18.86
2022-09-28T15:43:38.767Z,18.46
2022-09-28T15:46:27.322Z,17.97
2022-09-28T15:49:10.375Z,16.93
2022-09-28T15:52:05.175Z,17.04
2022-09-28T15:54:45.243Z,16.45
2022-09-28T15:57:40.180Z,15.52
2022-09-28T16:03:42.238Z,15.52
2022-09-28T16:10:02.828Z,15.36
2022-09-28T16:12:50.540Z,13.96
2022-09-28T16:15:29.045Z,14.32
2022-09-28T16:18:04.466Z,15.01
2022-09-28T16:21:24.743Z,13.77
2022-09-28T16:24:06.009Z,14.23
2022-09-28T16:26:43.763Z,13.50
2022-09-28T16:33:02.251Z,13.04
2022-09-28T16:35:34.669Z,13.05
2022-09-28T16:38:31.172Z,13.17
2022-09-28T16:41:08.767Z,13.83
2022-09-28T16:43:47.543Z,12.81
2022-09-28T16:46:28.325Z,12.61
2022-09-28T16:49:24.678Z,12.65
2022-09-28T16:51:58.124Z,13.70
2022-09-28T16:54:50.620Z,12.85
2022-09-28T16:57:25.047Z,12.26
2022-09-28T17:00:00.651Z,12.10
2022-09-28T17:02:46.148Z,12.32
2022-09-28T17:05:39.912Z,13.21
2022-09-28T17:08:20.325Z,12.92
2022-09-28T17:11:27.080Z,11.95
2022-09-28T17:14:13.770Z,12.76
2022-09-28T17:19:49.903Z,12.89
2022-09-28T17:22:34.090Z,12.87
2022-09-28T17:25:51.558Z,12.08
2022-09-28T17:28:27.168Z,11.90
2022-09-28T17:31:18.402Z,11.45
2022-09-28T17:34:31.362Z,12.67
2022-09-28T17:37:14.030Z,12.39
2022-09-28T17:40:37.203Z,11.43
2022-09-28T17:44:03.312Z,11.72
2022-09-28T17:49:39.268Z,11.18
2022-09-28T17:52:38.988Z,12.02
2022-09-28T17:55:17.726Z,11.09
2022-09-28T17:57:44.596Z,10.96
2022-09-28T18:06:49.154Z,11.46
2022-09-28T18:10:11.478Z,11.82
2022-09-28T18:13:10.235Z,11.72
2022-09-28T18:15:54.444Z,11.63
2022-09-28T18:18:43.332Z,11.18
2022-09-28T18:24:38.958Z,11.11
2022-09-28T18:27:37.945Z,10.31
2022-09-28T18:30:46.033Z,11.18
2022-09-28T18:33:22.002Z,10.73
2022-09-28T18:36:09.697Z,10.75
2022-09-28T18:39:06.419Z,10.72
2022-09-28T18:48:12.223Z,9.85
2022-09-28T18:54:11.255Z,9.92
2022-09-28T18:56:40.505Z,9.59
2022-09-28T19:02:25.546Z,10.47
2022-09-28T19:08:18.055Z,9.48
2022-09-28T19:14:11.473Z,10.60
2022-09-28T19:37:43.502Z,9.98
2022-09-28T19:44:10.395Z,10.13
2022-09-28T20:00:49.490Z,9.93
2022-09-28T20:03:18.956Z,9.24
2022-09-28T20:05:56.553Z,9.60
2022-09-28T20:08:23.816Z,8.81
2022-09-28T20:10:56.380Z,9.60
2022-09-28T20:13:32.622Z,8.67
2022-09-28T20:16:08.268Z,9.19
2022-09-28T20:18:37.947Z,8.69
2022-09-28T20:21:07.023Z,9.71
2022-09-28T20:23:34.045Z,9.62
2022-09-28T20:26:03.047Z,9.67
2022-09-28T20:28:35.494Z,9.60
2022-09-28T20:31:06.721Z,9.35
2022-09-28T20:33:35.231Z,9.64
2022-09-28T20:36:06.169Z,8.43
2022-09-28T20:38:33.119Z,9.06
2022-09-28T20:41:00.326Z,9.51
2022-09-28T20:43:37.412Z,8.51
2022-09-28T20:46:09.529Z,9.06
2022-09-28T20:48:38.211Z,8.22
2022-09-28T20:51:09.769Z,8.34
2022-09-28T20:53:37.335Z,8.25
2022-09-28T20:56:08.244Z,8.21
2022-09-28T20:58:40.902Z,8.69
2022-09-28T21:01:14.678Z,9.06
2022-09-28T21:03:45.571Z,8.05
2022-09-28T21:06:20.723Z,8.54
2022-09-28T21:08:54.563Z,7.91
2022-09-28T21:11:26.294Z,8.82
2022-09-28T21:13:59.467Z,9.21
2022-09-28T21:16:42.501Z,8.87
2022-09-28T21:19:13.330Z,9.20
2022-09-28T21:21:48.153Z,9.18
2022-09-28T21:24:20.697Z,9.16
2022-09-28T21:26:47.732Z,8.91
2022-09-28T21:29:19.967Z,7.87
2022-09-28T21:31:51.643Z,9.12
2022-09-28T21:34:20.734Z,7.79
2022-09-28T21:36:51.269Z,8.40
2022-09-28T21:39:19.208Z,7.95
2022-09-28T21:41:49.335Z,7.83
2022-09-28T21:44:17.923Z,7.66
2022-09-28T21:46:44.916Z,8.95
2022-09-28T21:49:14.625Z,7.89
2022-09-28T21:51:41.428Z,8.56
2022-09-28T21:54:16.043Z,8.36
2022-09-28T21:59:59.467Z,8.10
2022-09-28T22:02:43.576Z,7.46
2022-09-28T22:07:54.082Z,8.56
2022-09-28T22:10:20.806Z,8.29
2022-09-28T22:12:49.108Z,7.51
2022-09-28T22:15:15.991Z,8.41
2022-09-28T22:17:43.117Z,8.03
2022-09-28T22:20:10.064Z,8.30
2022-09-28T22:22:38.129Z,7.18
2022-09-28T22:25:05.728Z,8.25
2022-09-28T22:27:32.380Z,7.27
2022-09-28T22:29:59.235Z,7.61
2022-09-28T22:32:26.229Z,8.40
2022-09-28T22:34:53.061Z,8.41
2022-09-28T22:37:22.780Z,7.47
2022-09-28T22:39:51.138Z,8.24
2022-09-28T22:42:17.787Z,8.36
2022-09-28T22:44:44.698Z,8.34
2022-09-28T22:47:11.421Z,8.06
2022-09-28T22:49:38.095Z,8.15
2022-09-28T22:52:05.150Z,7.05
2022-09-28T22:54:32.650Z,6.78
2022-09-28T22:57:00.831Z,7.74
2022-09-28T22:59:27.492Z,6.78
2022-09-28T23:01:54.396Z,8.14
2022-09-28T23:04:21.050Z,8.07
2022-09-28T23:06:47.690Z,7.89
2022-09-28T23:09:14.949Z,7.86
2022-09-28T23:11:42.630Z,6.89
2022-09-28T23:14:12.108Z,7.97
2022-09-28T23:16:40.787Z,6.71
2022-09-28T23:19:07.454Z,6.45
2022-09-28T23:21:34.156Z,7.18
2022-09-28T23:24:01.739Z,6.61
2022-09-28T23:26:30.588Z,7.87
2022-09-28T23:28:58.299Z,7.84
2022-09-28T23:31:28.854Z,7.43
2022-09-28T23:33:59.649Z,6.65
2022-09-28T23:36:26.824Z,6.52
2022-09-28T23:38:54.063Z,7.81
2022-09-28T23:41:21.638Z,6.99
2022-09-28T23:43:48.400Z,7.64
2022-09-28T23:46:20.955Z,7.25
2022-09-28T23:48:50.796Z,7.79
2022-09-28T23:51:17.769Z,7.78
2022-09-28T23:53:44.920Z,7.74
2022-09-28T23:56:11.558Z,7.74
2022-09-28T23:58:39.454Z,7.73
